Clarendon Hills, Illinois
Current Conditions -  °F | °C
As of 1:53 PM on Tuesday 25 Nov 2014 (Local Time) from KMDW Reporting Station
Broken Clouds Broken Clouds  
Wind Chill: 17°   Ceiling: 2300
Heat Index: 28°   Visibility: 10mi
Dew Point: 18°   Wind: 15mph
Humidity: 66%   Direction: 230°SW
Pressure: 30.13"   Gusts: NA
Location:  41.8°N, 87.95°W
Report Text: KMDW 251953Z 23013KT 10SM BKN023 M02/M08 A3013 RMK AO2 SLP215 T10221078
Loading
Personal Weather Stations






























Interactive Weather Map New forecast layout! Learn more

10-Day Weather Forecast

Advertisements
Track Severe Weather on mobile